createdAt,value
2018-11-27T00:01:54.052Z,74.50
2018-11-27T00:04:21.469Z,74.49
2018-11-27T00:06:48.937Z,74.99
2018-11-27T00:09:16.379Z,75.04
2018-11-27T00:11:45.012Z,75.01
2018-11-27T00:14:12.470Z,75.16
2018-11-27T00:16:39.900Z,75.03
2018-11-27T00:19:07.358Z,74.90
2018-11-27T00:21:34.804Z,74.74
2018-11-27T00:24:02.274Z,74.82
2018-11-27T00:26:29.718Z,74.84
2018-11-27T00:28:57.169Z,74.67
2018-11-27T00:31:24.610Z,74.39
2018-11-27T00:33:52.054Z,74.60
2018-11-27T00:36:19.504Z,74.44
2018-11-27T00:38:46.950Z,74.54
2018-11-27T00:41:14.393Z,74.46
2018-11-27T00:43:41.850Z,74.14
2018-11-27T00:46:09.305Z,74.38
2018-11-27T00:48:36.759Z,75.78
2018-11-27T00:51:04.212Z,75.62
2018-11-27T00:53:31.682Z,75.57
2018-11-27T00:55:59.153Z,74.81
2018-11-27T00:58:26.628Z,74.44
2018-11-27T01:00:54.059Z,74.52
2018-11-27T01:03:21.522Z,74.73
2018-11-27T01:05:48.969Z,74.67
2018-11-27T01:08:16.423Z,73.86
2018-11-27T01:10:43.877Z,74.32
2018-11-27T01:13:11.321Z,74.40
2018-11-27T01:15:38.769Z,74.01
2018-11-27T01:18:06.239Z,74.23
2018-11-27T01:20:35.091Z,74.05
2018-11-27T01:23:02.535Z,73.94
2018-11-27T01:25:29.994Z,73.67
2018-11-27T01:27:57.433Z,73.66
2018-11-27T01:30:24.880Z,74.00
2018-11-27T01:32:52.330Z,74.52
2018-11-27T01:35:19.766Z,74.70
2018-11-27T01:37:47.197Z,74.47
2018-11-27T01:40:14.636Z,74.49
2018-11-27T01:42:42.082Z,74.30
2018-11-27T01:45:09.538Z,74.26
2018-11-27T01:47:36.955Z,74.29
2018-11-27T01:50:04.391Z,74.40
2018-11-27T01:52:31.842Z,74.42
2018-11-27T01:54:59.522Z,74.38
2018-11-27T01:57:26.987Z,74.14
2018-11-27T01:59:54.425Z,74.13
2018-11-27T02:02:21.876Z,74.26
2018-11-27T02:04:50.129Z,74.42
2018-11-27T02:07:17.703Z,74.56
2018-11-27T02:09:45.153Z,74.62
2018-11-27T02:12:12.591Z,74.68
2018-11-27T02:14:40.038Z,74.77
2018-11-27T02:17:07.490Z,74.83
2018-11-27T02:36:37.385Z,74.98
2018-11-27T02:39:04.847Z,74.98
2018-11-27T02:41:32.281Z,75.15
2018-11-27T02:43:59.771Z,75.01
2018-11-27T02:46:27.196Z,75.03
2018-11-27T02:48:54.668Z,75.03
2018-11-27T02:51:22.107Z,74.85
2018-11-27T02:53:49.571Z,74.80
2018-11-27T02:56:17.014Z,74.90
2018-11-27T02:58:44.490Z,74.61
2018-11-27T03:01:12.878Z,74.48
2018-11-27T03:03:40.367Z,74.33
2018-11-27T03:06:07.809Z,74.64
2018-11-27T03:08:35.270Z,74.59
2018-11-27T03:11:02.732Z,74.52
2018-11-27T03:13:30.169Z,74.31
2018-11-27T03:15:57.632Z,74.13
2018-11-27T03:18:25.059Z,74.19
2018-11-27T03:20:52.495Z,74.29
2018-11-27T03:23:19.936Z,74.46
2018-11-27T03:25:47.381Z,74.41
2018-11-27T03:28:14.819Z,74.39
2018-11-27T03:30:42.297Z,74.41
2018-11-27T03:33:09.731Z,74.72
2018-11-27T03:35:37.195Z,74.75
2018-11-27T03:38:04.626Z,74.71
2018-11-27T03:40:32.085Z,74.25
2018-11-27T03:42:59.522Z,73.85
2018-11-27T03:45:26.960Z,73.82
2018-11-27T03:47:54.442Z,74.00
2018-11-27T03:50:21.885Z,74.07
2018-11-27T03:52:49.342Z,74.17
2018-11-27T03:55:16.789Z,74.16
2018-11-27T03:57:44.221Z,73.81
2018-11-27T04:00:11.631Z,73.75
2018-11-27T04:02:39.087Z,73.71
2018-11-27T04:05:06.537Z,73.68
2018-11-27T04:07:33.987Z,73.83
2018-11-27T04:10:01.437Z,73.82
2018-11-27T04:12:28.891Z,73.72
2018-11-27T04:14:56.357Z,73.87
2018-11-27T04:17:23.780Z,73.75
2018-11-27T04:19:51.257Z,73.76
2018-11-27T04:22:18.708Z,73.65
2018-11-27T04:24:46.176Z,73.53
2018-11-27T04:27:13.634Z,73.57
2018-11-27T04:29:41.076Z,73.50
2018-11-27T04:32:08.537Z,73.59
2018-11-27T04:34:35.993Z,73.73
2018-11-27T04:37:03.428Z,73.66
2018-11-27T04:39:30.881Z,73.63
2018-11-27T04:41:58.309Z,73.65
2018-11-27T04:44:25.766Z,73.60
2018-11-27T04:46:53.214Z,73.52
2018-11-27T04:49:20.673Z,73.67
2018-11-27T04:51:48.112Z,73.94
2018-11-27T04:54:15.568Z,74.32
2018-11-27T04:56:44.112Z,74.36
2018-11-27T04:59:11.590Z,74.30
2018-11-27T05:01:39.058Z,74.25
2018-11-27T05:04:06.519Z,74.10
2018-11-27T05:06:33.987Z,73.86
2018-11-27T05:09:01.445Z,73.72
2018-11-27T05:11:28.916Z,74.07
2018-11-27T05:13:56.357Z,74.46
2018-11-27T05:16:23.819Z,74.77
2018-11-27T05:18:51.248Z,74.73
2018-11-27T05:21:18.707Z,74.30
2018-11-27T05:23:46.146Z,74.32
2018-11-27T05:26:13.604Z,74.24
2018-11-27T05:28:41.074Z,74.73
2018-11-27T05:31:08.503Z,75.04
2018-11-27T05:33:35.950Z,75.26
2018-11-27T05:36:03.424Z,75.30
2018-11-27T05:38:30.884Z,75.54
2018-11-27T05:40:58.322Z,75.78
2018-11-27T05:43:25.770Z,75.95
2018-11-27T05:45:53.201Z,76.04
2018-11-27T05:48:20.674Z,75.98
2018-11-27T05:50:48.115Z,75.89
2018-11-27T05:53:15.607Z,75.87
2018-11-27T05:55:43.039Z,75.67
2018-11-27T05:58:10.489Z,75.40
2018-11-27T06:00:37.953Z,75.14
2018-11-27T06:03:05.416Z,75.08
2018-11-27T06:05:32.859Z,75.30
2018-11-27T06:08:00.346Z,75.96
2018-11-27T06:10:27.809Z,75.60
2018-11-27T06:12:55.262Z,75.28
2018-11-27T06:15:22.719Z,74.99
2018-11-27T06:17:50.154Z,74.86
2018-11-27T06:20:17.604Z,74.77
2018-11-27T06:22:45.078Z,74.96
2018-11-27T06:25:12.531Z,75.29
2018-11-27T06:27:41.078Z,74.99
2018-11-27T06:30:08.519Z,74.88
2018-11-27T06:32:35.955Z,74.81
2018-11-27T06:35:03.420Z,74.75
2018-11-27T06:37:30.846Z,74.57
2018-11-27T06:39:58.289Z,74.59
2018-11-27T06:42:25.732Z,74.55
2018-11-27T06:44:53.149Z,74.47
2018-11-27T06:47:20.587Z,74.65
2018-11-27T06:49:48.015Z,74.88
2018-11-27T06:52:15.479Z,74.87
2018-11-27T06:54:42.896Z,74.71
2018-11-27T06:57:10.384Z,74.75
2018-11-27T06:59:37.842Z,74.82
2018-11-27T07:02:05.280Z,74.63
2018-11-27T07:04:32.717Z,74.58
2018-11-27T07:07:00.136Z,74.57
2018-11-27T07:09:27.595Z,74.56
2018-11-27T07:11:55.030Z,74.55
2018-11-27T07:14:22.496Z,74.44
2018-11-27T07:16:49.933Z,74.27
2018-11-27T07:19:17.375Z,74.38
2018-11-27T07:21:44.850Z,74.66
2018-11-27T07:24:12.329Z,74.71
2018-11-27T07:26:39.773Z,74.46
2018-11-27T07:29:07.247Z,74.72
2018-11-27T07:31:34.676Z,74.91
2018-11-27T07:34:02.117Z,74.74
2018-11-27T07:36:29.573Z,74.54
2018-11-27T07:38:57.002Z,74.49
2018-11-27T07:41:24.440Z,74.45
2018-11-27T07:43:51.888Z,74.46
2018-11-27T07:46:19.346Z,74.73
2018-11-27T07:48:46.793Z,75.27
2018-11-27T07:51:14.236Z,75.34
2018-11-27T08:10:43.943Z,75.21
2018-11-27T08:13:11.386Z,75.58
2018-11-27T08:15:38.810Z,75.84
2018-11-27T08:18:06.475Z,76.07
2018-11-27T08:20:37.072Z,76.10
2018-11-27T08:23:04.678Z,76.10
2018-11-27T08:25:32.102Z,75.61
2018-11-27T08:27:59.559Z,75.54
2018-11-27T08:30:26.980Z,75.59
2018-11-27T08:32:54.431Z,75.34
2018-11-27T08:35:21.891Z,75.51
2018-11-27T08:37:49.311Z,75.39
2018-11-27T08:40:16.775Z,75.60
2018-11-27T08:42:46.238Z,75.74
2018-11-27T08:45:13.859Z,75.47
2018-11-27T08:47:41.280Z,75.47
2018-11-27T08:50:08.732Z,75.45
2018-11-27T08:52:36.892Z,75.65
2018-11-27T08:55:03.678Z,75.72
2018-11-27T08:57:31.103Z,75.65
2018-11-27T08:59:58.571Z,75.49
2018-11-27T09:02:26.015Z,75.04
2018-11-27T09:04:53.454Z,74.62
2018-11-27T09:07:20.878Z,74.60
2018-11-27T09:09:48.335Z,74.87
2018-11-27T09:12:15.767Z,74.99
2018-11-27T09:14:43.226Z,74.73
2018-11-27T09:17:10.665Z,74.82
2018-11-27T09:19:38.114Z,74.59
2018-11-27T09:22:05.659Z,74.33
2018-11-27T09:24:34.389Z,74.49
2018-11-27T09:27:02.017Z,74.34
2018-11-27T09:29:29.495Z,74.40
2018-11-27T09:48:59.481Z,73.59
2018-11-27T09:51:26.936Z,73.92
2018-11-27T09:53:54.366Z,73.71
2018-11-27T09:56:21.816Z,73.92
2018-11-27T09:58:53.061Z,74.05
2018-11-27T10:01:20.556Z,73.80
2018-11-27T10:03:47.994Z,73.57
2018-11-27T10:06:15.467Z,73.53
2018-11-27T10:08:42.915Z,74.09
2018-11-27T10:11:10.339Z,74.40
2018-11-27T10:13:37.790Z,74.13
2018-11-27T10:16:05.259Z,73.52
2018-11-27T10:18:32.700Z,73.81
2018-11-27T10:21:00.151Z,73.73
2018-11-27T10:23:27.590Z,73.54
2018-11-27T10:25:55.020Z,73.60
2018-11-27T10:28:22.468Z,74.25
2018-11-27T10:30:49.904Z,74.34
2018-11-27T10:33:18.118Z,74.36
2018-11-27T10:35:45.568Z,74.26
2018-11-27T10:38:13.011Z,73.47
2018-11-27T10:40:40.453Z,73.49
2018-11-27T10:43:07.876Z,72.99
2018-11-27T10:45:35.321Z,72.88
2018-11-27T10:48:02.788Z,73.00
2018-11-27T10:50:30.359Z,73.34
2018-11-27T10:52:57.790Z,73.16
2018-11-27T10:55:26.185Z,72.84
2018-11-27T10:57:53.745Z,72.31
2018-11-27T11:00:21.217Z,72.26
2018-11-27T11:02:48.679Z,72.17
2018-11-27T11:05:16.111Z,72.16
2018-11-27T11:07:43.639Z,72.36
2018-11-27T11:10:11.115Z,71.97
2018-11-27T11:12:38.555Z,72.13
2018-11-27T11:15:05.992Z,71.72
2018-11-27T11:17:33.422Z,71.96
2018-11-27T11:20:00.903Z,71.50
2018-11-27T11:22:28.345Z,71.49
2018-11-27T11:24:55.827Z,71.13
2018-11-27T11:27:23.280Z,71.19
2018-11-27T11:29:51.678Z,71.32
2018-11-27T11:32:19.235Z,71.56
2018-11-27T11:34:46.700Z,71.12
2018-11-27T11:37:14.154Z,70.53
2018-11-27T11:39:41.611Z,71.21
2018-11-27T11:42:09.076Z,70.54
2018-11-27T11:44:36.510Z,70.67
2018-11-27T11:47:03.939Z,70.33
2018-11-27T11:49:31.385Z,70.35
2018-11-27T11:51:58.800Z,70.11
2018-11-27T11:54:26.275Z,69.84
2018-11-27T11:56:53.751Z,70.30
2018-11-27T11:59:21.204Z,69.96
2018-11-27T12:01:48.624Z,70.28
2018-11-27T12:04:16.059Z,69.98
2018-11-27T12:06:43.484Z,69.89
2018-11-27T12:09:10.953Z,69.57
2018-11-27T12:11:38.373Z,69.41
2018-11-27T12:14:06.356Z,69.29
2018-11-27T12:16:33.796Z,69.35
2018-11-27T12:19:01.223Z,69.85
2018-11-27T12:21:28.669Z,69.90
2018-11-27T12:23:56.110Z,69.42
2018-11-27T12:26:24.433Z,68.96
2018-11-27T12:28:51.951Z,69.45
2018-11-27T12:31:19.396Z,69.34
2018-11-27T12:33:46.824Z,69.90
2018-11-27T12:36:14.276Z,68.68
2018-11-27T12:38:41.706Z,68.32
2018-11-27T12:41:10.359Z,68.67
2018-11-27T12:43:37.519Z,68.94
2018-11-27T12:46:06.246Z,68.61
2018-11-27T12:48:34.690Z,68.13
2018-11-27T12:51:04.125Z,68.09
2018-11-27T12:53:32.549Z,68.05
2018-11-27T13:13:02.884Z,67.37
2018-11-27T13:15:30.346Z,67.81
2018-11-27T13:17:57.756Z,67.60
2018-11-27T13:20:25.229Z,67.58
2018-11-27T13:22:52.658Z,67.75
2018-11-27T13:25:20.090Z,67.65
2018-11-27T13:27:47.523Z,67.46
2018-11-27T13:30:14.980Z,67.91
2018-11-27T13:32:42.395Z,67.82
2018-11-27T13:35:09.843Z,67.83
2018-11-27T13:37:37.299Z,67.99
2018-11-27T13:40:04.724Z,67.75
2018-11-27T13:42:32.174Z,67.68
2018-11-27T13:44:59.647Z,67.43
2018-11-27T13:47:27.070Z,67.52
2018-11-27T13:49:54.495Z,67.46
2018-11-27T13:52:21.935Z,66.93
2018-11-27T13:54:49.355Z,68.72
2018-11-27T13:57:19.565Z,68.17
2018-11-27T13:59:47.019Z,68.77
2018-11-27T14:02:14.447Z,68.41
2018-11-27T14:04:41.878Z,68.95
2018-11-27T14:07:09.328Z,68.37
2018-11-27T14:09:36.784Z,68.46
2018-11-27T14:12:04.209Z,68.11
2018-11-27T14:14:31.667Z,67.88
2018-11-27T14:16:59.098Z,67.62
2018-11-27T14:19:27.468Z,67.62
2018-11-27T14:21:54.997Z,67.16
2018-11-27T14:24:22.453Z,67.38
2018-11-27T14:26:49.852Z,67.08
2018-11-27T14:29:17.294Z,67.42
2018-11-27T14:31:44.732Z,67.79
2018-11-27T14:34:12.193Z,67.61
2018-11-27T14:36:39.653Z,67.57
2018-11-27T14:39:07.109Z,67.42
2018-11-27T14:41:34.578Z,67.79
2018-11-27T14:44:02.021Z,68.38
2018-11-27T14:46:30.222Z,68.36
2018-11-27T14:48:57.737Z,67.45
2018-11-27T14:51:25.159Z,67.02
2018-11-27T14:53:52.660Z,66.98
2018-11-27T14:56:20.880Z,67.69
2018-11-27T14:58:50.857Z,67.47
2018-11-27T15:01:15.862Z,67.57
2018-11-27T15:03:44.325Z,67.99
2018-11-27T15:06:11.795Z,67.02
2018-11-27T15:08:49.164Z,67.66
2018-11-27T15:11:16.626Z,68.04
2018-11-27T15:13:44.062Z,67.18
2018-11-27T15:16:11.542Z,68.00
2018-11-27T15:18:40.021Z,66.93
2018-11-27T15:21:08.471Z,68.07
2018-11-27T16:39:08.043Z,68.47
2018-11-27T16:41:35.584Z,71.05
2018-11-27T16:44:04.116Z,70.59
2018-11-27T16:46:31.570Z,69.12
2018-11-27T16:48:59.076Z,69.97
2018-11-27T16:51:27.777Z,69.42
2018-11-27T16:53:55.398Z,69.99
2018-11-27T16:56:22.852Z,69.87
2018-11-27T16:58:50.292Z,69.14
2018-11-27T17:01:17.729Z,68.53
2018-11-27T17:03:45.163Z,67.90
2018-11-27T17:06:12.613Z,68.15
2018-11-27T17:08:40.051Z,67.77
2018-11-27T17:11:07.525Z,67.95
2018-11-27T17:13:35.759Z,67.89
2018-11-27T17:16:03.312Z,67.62
2018-11-27T17:18:30.767Z,67.31
2018-11-27T17:20:58.202Z,67.54
2018-11-27T17:23:25.627Z,66.67
2018-11-27T17:25:53.075Z,66.95
2018-11-27T17:28:20.537Z,66.62
2018-11-27T17:30:47.975Z,65.73
2018-11-27T17:33:15.387Z,65.61
2018-11-27T17:35:42.845Z,65.42
2018-11-27T17:38:10.292Z,65.25
2018-11-27T17:40:37.758Z,65.24
2018-11-27T17:43:05.192Z,64.85
2018-11-27T17:45:32.601Z,64.68
2018-11-27T17:48:00.081Z,66.44
2018-11-27T17:50:27.522Z,66.47
2018-11-27T17:52:54.948Z,66.16
2018-11-27T17:55:22.405Z,65.33
2018-11-27T17:57:51.772Z,65.67
2018-11-27T18:00:19.345Z,65.78
2018-11-27T18:02:46.834Z,66.01
2018-11-27T18:05:17.905Z,65.60
2018-11-27T18:07:45.361Z,65.25
2018-11-27T18:10:12.808Z,65.39
2018-11-27T18:12:40.225Z,65.13
2018-11-27T18:15:07.689Z,65.46
2018-11-27T18:17:35.151Z,65.35
2018-11-27T18:20:03.274Z,65.45
2018-11-27T18:22:30.763Z,65.06
2018-11-27T18:24:58.199Z,64.86
2018-11-27T18:27:25.677Z,64.90
2018-11-27T18:29:53.127Z,64.87
2018-11-27T18:32:22.549Z,64.87
2018-11-27T18:34:50.492Z,64.68
2018-11-27T18:37:19.237Z,64.64
2018-11-27T18:39:46.688Z,64.70
2018-11-27T18:42:15.352Z,64.76
2018-11-27T18:44:42.794Z,64.85
2018-11-27T18:47:10.254Z,65.07
2018-11-27T18:49:37.697Z,65.19
2018-11-27T18:52:05.201Z,65.26
2018-11-27T18:54:32.743Z,65.07
2018-11-27T18:57:04.021Z,65.04
2018-11-27T18:59:32.542Z,65.10
2018-11-27T19:02:00.769Z,65.23
2018-11-27T19:04:29.384Z,65.36
2018-11-27T19:06:57.888Z,65.15
2018-11-27T19:09:26.538Z,64.87
2018-11-27T19:11:53.990Z,65.52
2018-11-27T19:14:21.424Z,65.54
2018-11-27T19:16:48.868Z,65.42
2018-11-27T19:19:16.352Z,65.56
2018-11-27T19:21:43.784Z,65.80
2018-11-27T19:24:11.220Z,66.33
2018-11-27T19:26:38.659Z,65.66
2018-11-27T19:29:06.096Z,65.70
2018-11-27T19:31:33.532Z,66.00
2018-11-27T19:34:01.017Z,65.46
2018-11-27T19:36:28.456Z,65.90
2018-11-27T19:38:56.842Z,66.29
2018-11-27T19:41:24.717Z,66.52
2018-11-27T19:43:52.331Z,66.56
2018-11-27T19:46:19.818Z,65.78
2018-11-27T19:48:53.303Z,65.94
2018-11-27T19:51:14.701Z,66.37
2018-11-27T19:53:42.182Z,66.64
2018-11-27T19:56:09.631Z,66.49
2018-11-27T19:58:37.097Z,66.60
2018-11-27T20:01:04.532Z,66.62
2018-11-27T20:03:31.987Z,66.07
2018-11-27T20:05:59.439Z,65.99
2018-11-27T20:08:26.928Z,66.92
2018-11-27T20:10:54.418Z,66.69
2018-11-27T20:13:23.006Z,66.65
2018-11-27T20:15:50.464Z,66.41
2018-11-27T20:18:19.108Z,66.13
2018-11-27T20:20:46.560Z,66.70
2018-11-27T20:23:14.014Z,66.39
2018-11-27T20:25:41.434Z,66.69
2018-11-27T20:28:08.920Z,66.72
2018-11-27T20:30:37.582Z,66.88
2018-11-27T20:33:05.048Z,66.71
2018-11-27T20:35:32.508Z,66.34
2018-11-27T20:37:59.999Z,66.28
2018-11-27T20:40:27.458Z,66.94
2018-11-27T20:42:54.928Z,66.91
2018-11-27T20:45:22.372Z,66.74
2018-11-27T20:47:49.874Z,66.79
2018-11-27T20:50:17.327Z,66.81
2018-11-27T20:52:44.801Z,66.92
2018-11-27T20:55:12.295Z,66.62
2018-11-27T20:57:40.304Z,66.99
2018-11-27T21:00:08.891Z,67.61
2018-11-27T21:02:36.354Z,67.16
2018-11-27T21:05:03.813Z,67.31
2018-11-27T21:24:33.912Z,67.70
2018-11-27T21:27:01.408Z,67.88
2018-11-27T21:29:28.857Z,67.68
2018-11-27T21:31:56.314Z,68.06
2018-11-27T21:34:23.787Z,68.22
2018-11-27T21:36:51.244Z,67.47
2018-11-27T21:39:18.724Z,67.92
2018-11-27T21:41:47.178Z,67.28
2018-11-27T21:44:14.637Z,67.49
2018-11-27T21:46:42.112Z,68.26
2018-11-27T21:49:09.584Z,68.61
2018-11-27T21:51:37.000Z,68.09
2018-11-27T21:54:04.684Z,68.23
2018-11-27T21:56:32.121Z,68.10
2018-11-27T21:59:03.376Z,67.59
2018-11-27T22:01:30.815Z,67.74
2018-11-27T22:03:58.281Z,67.48
2018-11-27T22:06:25.770Z,67.74
2018-11-27T22:08:53.251Z,67.52
2018-11-27T22:11:20.696Z,67.07
2018-11-27T22:13:48.150Z,67.05
2018-11-27T22:16:16.502Z,67.37
2018-11-27T22:18:43.968Z,67.70
2018-11-27T22:21:15.055Z,67.51
2018-11-27T22:23:51.896Z,67.74
2018-11-27T22:26:20.574Z,67.29
2018-11-27T22:28:49.211Z,67.56
2018-11-27T22:31:16.730Z,67.97
2018-11-27T22:33:44.177Z,67.85
2018-11-27T22:36:11.635Z,67.71
2018-11-27T22:38:39.873Z,67.48
2018-11-27T22:41:08.417Z,67.82
2018-11-27T22:43:38.750Z,66.88
2018-11-27T22:46:06.248Z,67.66
2018-11-27T22:48:33.701Z,68.23
2018-11-27T22:51:02.334Z,67.97
2018-11-27T22:53:29.785Z,68.44
2018-11-27T22:55:57.223Z,68.53
2018-11-27T22:58:42.678Z,68.15
2018-11-27T23:01:10.124Z,68.19
2018-11-27T23:03:37.610Z,68.45
2018-11-27T23:06:05.072Z,68.17
2018-11-27T23:08:32.519Z,68.34
2018-11-27T23:10:59.970Z,68.09
2018-11-27T23:13:27.425Z,68.22
2018-11-27T23:15:54.869Z,68.12
2018-11-27T23:18:22.328Z,68.35
2018-11-27T23:20:49.808Z,67.76
2018-11-27T23:23:17.254Z,68.33
2018-11-27T23:25:45.662Z,68.57
2018-11-27T23:28:13.158Z,68.18
2018-11-27T23:30:40.589Z,68.42
2018-11-27T23:33:08.030Z,68.24
2018-11-27T23:35:35.487Z,68.31
2018-11-27T23:38:02.943Z,68.26
2018-11-27T23:40:30.392Z,67.83
2018-11-27T23:42:57.832Z,68.03
2018-11-27T23:45:25.320Z,67.95
2018-11-27T23:47:52.771Z,68.00
2018-11-27T23:50:20.343Z,67.87
2018-11-27T23:52:47.786Z,67.87
2018-11-27T23:55:15.266Z,67.62
2018-11-27T23:57:42.730Z,67.24
